Time;durP1;ratioP1;P1;durP2;ratioP2;P2;SDS_P1;SDS_P2;PMS_P1;PMS_P2;Temp;Humidity;BMP_temperature;BMP_pressure;BME280_temperature;BME280_humidity;BME280_pressure;Samples;Min_cycle;Max_cycle;Signal;HPM_P1;HPM_P2
2021/11/18 00:00:41;;;;;;;9.23;6.65;;;;;;;;;;5089640;28;20019;-73
2021/11/18 00:03:07;;;;;;;8.98;6.70;;;;;;;;;;5091830;28;20069;-73
2021/11/18 00:05:32;;;;;;;8.18;6.22;;;;;;;;;;5091412;28;20095;-72
2021/11/18 00:07:58;;;;;;;9.50;7.05;;;;;;;;;;5091994;28;20046;-73
2021/11/18 00:10:28;;;;;;;9.20;6.75;;;;;;;;;;5090210;28;20046;-72
2021/11/18 00:12:55;;;;;;;10.60;7.32;;;;;;;;;;5090892;28;20020;-72
2021/11/18 00:15:21;;;;;;;9.60;6.78;;;;;;;;;;5089293;28;20451;-71
2021/11/18 00:17:46;;;;;;;10.00;7.40;;;;;;;;;;5091491;28;20116;-71
2021/11/18 00:20:14;;;;;;;10.55;7.07;;;;;;;;;;5091057;28;20028;-71
2021/11/18 00:22:40;;;;;;;8.48;7.00;;;;;;;;;;5081440;28;20025;-70
2021/11/18 00:25:09;;;;;;;8.48;6.70;;;;;;;;;;5077318;28;20008;-70
2021/11/18 00:27:34;;;;;;;9.38;7.40;;;;;;;;;;5088952;28;20059;-69
2021/11/18 00:29:59;;;;;;;10.30;7.30;;;;;;;;;;5090730;28;20028;-71
2021/11/18 00:32:24;;;;;;;10.10;7.68;;;;;;;;;;5073906;28;20040;-71
2021/11/18 00:34:50;;;;;;;9.75;6.88;;;;;;;;;;5070137;28;20051;-71
2021/11/18 00:37:15;;;;;;;8.75;6.97;;;;;;;;;;5058248;28;20177;-71
2021/11/18 00:39:40;;;;;;;8.93;6.80;;;;;;;;;;5081098;28;20092;-71
2021/11/18 00:42:05;;;;;;;10.13;7.38;;;;;;;;;;5081743;28;20030;-71
2021/11/18 00:44:30;;;;;;;9.55;7.00;;;;;;;;;;5089399;28;20028;-71
2021/11/18 00:46:56;;;;;;;10.23;7.22;;;;;;;;;;5090926;28;20127;-71
2021/11/18 00:49:21;;;;;;;9.23;7.28;;;;;;;;;;5090739;28;20035;-71
2021/11/18 00:51:48;;;;;;;10.10;7.32;;;;;;;;;;5088444;28;20067;-71
2021/11/18 00:54:15;;;;;;;12.45;8.07;;;;;;;;;;5086006;28;20035;-71
2021/11/18 00:56:40;;;;;;;9.55;6.40;;;;;;;;;;5091156;28;20081;-72
2021/11/18 00:59:05;;;;;;;8.93;7.55;;;;;;;;;;5090171;28;20028;-72
2021/11/18 01:01:32;;;;;;;10.52;8.05;;;;;;;;;;5091408;28;20108;-72
2021/11/18 01:03:57;;;;;;;10.27;7.55;;;;;;;;;;5094986;28;20388;-72
2021/11/18 01:06:23;;;;;;;9.73;7.47;;;;;;;;;;5094154;28;20031;-72
2021/11/18 01:08:48;;;;;;;9.38;7.65;;;;;;;;;;5094488;28;20043;-72
2021/11/18 01:11:24;;;;;;;9.95;7.45;;;;;;;;;;5080655;28;20391;-71
2021/11/18 01:13:49;;;;;;;;;;;;;;;;;;5093675;28;20031;-71
2021/11/18 01:16:16;;;;;;;9.50;7.54;;;;;;;;;;5094838;28;19908;-71
2021/11/18 01:18:41;;;;;;;11.65;7.65;;;;;;;;;;5094499;28;20013;-71
2021/11/18 01:21:07;;;;;;;12.45;7.97;;;;;;;;;;5093146;28;20031;-71
2021/11/18 01:23:34;;;;;;;12.40;8.85;;;;;;;;;;5081767;28;20028;-71
2021/11/18 01:25:59;;;;;;;13.07;8.27;;;;;;;;;;5093078;28;20127;-71
2021/11/18 01:28:25;;;;;;;10.98;8.57;;;;;;;;;;5093180;28;20519;-71
2021/11/18 01:30:50;;;;;;;9.77;8.02;;;;;;;;;;5090517;28;20016;-71
2021/11/18 01:33:16;;;;;;;11.95;8.07;;;;;;;;;;5088317;28;20547;-71
2021/11/18 01:35:42;;;;;;;13.18;9.73;;;;;;;;;;5092835;28;20016;-71
2021/11/18 01:38:07;;;;;;;13.77;8.95;;;;;;;;;;5093004;28;20519;-71
2021/11/18 01:40:34;;;;;;;11.18;9.05;;;;;;;;;;5072773;28;20382;-70
2021/11/18 01:42:59;;;;;;;11.30;8.95;;;;;;;;;;5088106;28;20016;-70
2021/11/18 01:45:28;;;;;;;11.90;9.57;;;;;;;;;;5093893;28;20046;-70
2021/11/18 01:47:54;;;;;;;11.60;8.43;;;;;;;;;;5094262;28;20046;-71
2021/11/18 01:50:20;;;;;;;12.27;9.30;;;;;;;;;;5093028;28;20507;-70
2021/11/18 01:52:46;;;;;;;14.02;9.60;;;;;;;;;;5086697;28;20047;-70
2021/11/18 01:55:11;;;;;;;11.82;8.82;;;;;;;;;;5093445;28;20048;-71
2021/11/18 01:57:37;;;;;;;13.35;9.30;;;;;;;;;;5086912;28;20103;-69
2021/11/18 02:00:13;;;;;;;10.82;8.85;;;;;;;;;;5091955;28;20024;-70
2021/11/18 02:02:39;;;;;;;10.50;8.57;;;;;;;;;;5087251;28;20022;-70
2021/11/18 02:05:10;;;;;;;15.27;10.68;;;;;;;;;;5085396;28;20008;-70
2021/11/18 02:07:40;;;;;;;12.80;9.63;;;;;;;;;;5089799;28;20483;-72
2021/11/18 02:10:06;;;;;;;12.43;9.88;;;;;;;;;;5088795;28;20043;-70
2021/11/18 02:12:31;;;;;;;13.85;9.25;;;;;;;;;;5080053;28;20480;-71
2021/11/18 02:14:56;;;;;;;14.82;10.30;;;;;;;;;;5091580;28;20488;-70
2021/11/18 02:17:23;;;;;;;12.93;9.30;;;;;;;;;;5082220;28;20425;-71
2021/11/18 02:20:00;;;;;;;11.85;9.27;;;;;;;;;;5090098;28;20495;-71
2021/11/18 02:22:26;;;;;;;12.05;9.02;;;;;;;;;;5073444;28;20020;-71
2021/11/18 02:24:54;;;;;;;12.57;8.23;;;;;;;;;;5082314;28;20017;-71
2021/11/18 02:27:20;;;;;;;13.55;9.15;;;;;;;;;;5087950;28;20467;-71
2021/11/18 02:29:47;;;;;;;10.70;8.57;;;;;;;;;;5093643;28;20481;-70
2021/11/18 02:32:14;;;;;;;10.25;8.18;;;;;;;;;;5088753;28;20048;-70
2021/11/18 02:34:50;;;;;;;12.10;9.35;;;;;;;;;;5085391;28;20063;-70
2021/11/18 02:37:16;;;;;;;13.15;9.10;;;;;;;;;;5093015;28;20046;-70
2021/11/18 02:39:41;;;;;;;11.70;7.95;;;;;;;;;;5083185;28;20017;-71
2021/11/18 02:42:08;;;;;;;11.48;9.48;;;;;;;;;;5065410;28;20031;-70
2021/11/18 02:44:34;;;;;;;10.50;8.23;;;;;;;;;;5092605;28;20023;-70
2021/11/18 02:46:59;;;;;;;11.88;8.57;;;;;;;;;;5090716;28;20016;-70
2021/11/18 02:49:24;;;;;;;11.48;9.63;;;;;;;;;;5091856;28;20085;-69
2021/11/18 02:51:50;;;;;;;12.02;8.95;;;;;;;;;;5089672;28;20477;-70
2021/11/18 02:54:16;;;;;;;13.57;8.80;;;;;;;;;;5081578;28;20032;-70
2021/11/18 02:56:41;;;;;;;10.75;8.93;;;;;;;;;;5088719;28;20020;-70
2021/11/18 02:59:07;;;;;;;10.82;8.23;;;;;;;;;;5092055;28;20043;-70
2021/11/18 03:01:34;;;;;;;10.18;8.43;;;;;;;;;;5089543;28;20027;-70
2021/11/18 03:04:00;;;;;;;11.43;8.05;;;;;;;;;;5080284;28;20113;-70
2021/11/18 03:06:26;;;;;;;12.30;9.25;;;;;;;;;;5091606;28;20016;-70
2021/11/18 03:08:51;;;;;;;11.15;8.27;;;;;;;;;;5091587;28;20563;-70
2021/11/18 03:11:18;;;;;;;11.38;8.98;;;;;;;;;;5087721;28;20024;-70
2021/11/18 03:13:44;;;;;;;11.85;8.48;;;;;;;;;;5092668;28;20024;-70
2021/11/18 03:16:09;;;;;;;9.77;8.20;;;;;;;;;;5090925;28;20365;-70
2021/11/18 03:18:34;;;;;;;12.13;8.35;;;;;;;;;;5091039;28;20016;-70
2021/11/18 03:21:01;;;;;;;9.63;7.63;;;;;;;;;;5092466;28;20449;-71
2021/11/18 03:23:27;;;;;;;9.95;7.00;;;;;;;;;;5079683;28;20020;-70
2021/11/18 03:25:52;;;;;;;10.68;7.50;;;;;;;;;;5075516;28;20017;-70
2021/11/18 03:28:19;;;;;;;11.25;8.35;;;;;;;;;;5091708;28;20100;-71
2021/11/18 03:30:45;;;;;;;12.02;8.48;;;;;;;;;;5089689;28;20058;-70
2021/11/18 03:33:12;;;;;;;10.13;8.00;;;;;;;;;;5072898;28;20025;-70
2021/11/18 03:35:37;;;;;;;11.18;7.97;;;;;;;;;;5090802;28;20028;-70
2021/11/18 03:38:03;;;;;;;9.13;7.35;;;;;;;;;;5092481;28;20051;-70
2021/11/18 03:40:29;;;;;;;9.85;7.90;;;;;;;;;;5090069;28;20039;-70
2021/11/18 03:42:54;;;;;;;8.95;7.47;;;;;;;;;;5090971;28;20503;-69
2021/11/18 03:45:21;;;;;;;8.35;6.43;;;;;;;;;;5091777;28;20476;-70
2021/11/18 03:47:46;;;;;;;7.97;6.47;;;;;;;;;;5092011;28;20028;-70
2021/11/18 03:50:11;;;;;;;9.27;7.40;;;;;;;;;;5089161;28;20468;-70
2021/11/18 03:52:37;;;;;;;9.52;6.05;;;;;;;;;;5083089;28;20029;-70
2021/11/18 03:55:04;;;;;;;8.48;6.10;;;;;;;;;;5087128;28;20100;-69
2021/11/18 03:57:29;;;;;;;7.72;6.13;;;;;;;;;;5090656;28;20032;-69
2021/11/18 03:59:54;;;;;;;8.95;6.18;;;;;;;;;;5090284;28;20115;-70
2021/11/18 04:02:20;;;;;;;8.80;6.20;;;;;;;;;;5091328;28;20024;-69
2021/11/18 04:04:49;;;;;;;7.78;6.13;;;;;;;;;;5090353;28;20020;-70
2021/11/18 04:07:15;;;;;;;8.57;7.05;;;;;;;;;;5092093;28;20082;-70
2021/11/18 04:09:41;;;;;;;9.43;6.55;;;;;;;;;;5085332;28;20025;-70
2021/11/18 04:12:07;;;;;;;9.65;6.25;;;;;;;;;;5063826;28;20028;-70
2021/11/18 04:14:34;;;;;;;7.45;5.53;;;;;;;;;;5090060;28;20032;-71
2021/11/18 04:16:59;;;;;;;7.78;5.60;;;;;;;;;;5091455;28;20383;-70
2021/11/18 04:19:24;;;;;;;9.85;5.97;;;;;;;;;;5090766;28;20111;-70
2021/11/18 04:21:50;;;;;;;7.70;5.55;;;;;;;;;;5087215;28;20195;-70
2021/11/18 04:24:17;;;;;;;9.18;5.95;;;;;;;;;;5072133;28;20124;-69
2021/11/18 04:26:45;;;;;;;7.60;5.75;;;;;;;;;;5087862;28;20016;-69
2021/11/18 04:29:10;;;;;;;7.13;5.22;;;;;;;;;;5071682;28;20090;-70
2021/11/18 04:31:35;;;;;;;9.93;5.68;;;;;;;;;;5084308;28;20476;-70
2021/11/18 04:34:01;;;;;;;8.55;6.25;;;;;;;;;;5090043;28;20028;-70
2021/11/18 04:36:27;;;;;;;6.88;5.72;;;;;;;;;;5094319;28;20052;-70
2021/11/18 04:38:53;;;;;;;8.27;5.50;;;;;;;;;;5096286;28;20091;-70
2021/11/18 04:41:20;;;;;;;7.78;5.70;;;;;;;;;;5076903;28;20016;-70
2021/11/18 04:43:46;;;;;;;8.45;5.65;;;;;;;;;;5094014;28;20020;-70
2021/11/18 04:46:13;;;;;;;8.35;5.72;;;;;;;;;;5094859;28;20024;-70
2021/11/18 04:48:39;;;;;;;6.47;5.32;;;;;;;;;;5095719;28;20468;-70
2021/11/18 04:51:06;;;;;;;8.52;5.25;;;;;;;;;;5094250;28;20020;-70
2021/11/18 04:53:31;;;;;;;7.82;5.63;;;;;;;;;;5078429;28;20073;-70
2021/11/18 04:55:56;;;;;;;9.65;6.97;;;;;;;;;;5089127;28;20114;-70
2021/11/18 04:58:22;;;;;;;8.13;5.45;;;;;;;;;;5077172;28;20032;-70
2021/11/18 05:00:49;;;;;;;8.50;5.57;;;;;;;;;;5093733;28;20043;-70
2021/11/18 05:03:15;;;;;;;6.82;4.97;;;;;;;;;;5095071;28;20077;-70
2021/11/18 05:05:41;;;;;;;7.55;5.38;;;;;;;;;;5093749;28;20016;-70
2021/11/18 05:08:06;;;;;;;8.27;5.20;;;;;;;;;;5093912;28;20020;-71
2021/11/18 05:10:31;;;;;;;7.70;6.03;;;;;;;;;;5084665;28;20423;-70
2021/11/18 05:12:57;;;;;;;9.85;5.88;;;;;;;;;;5094576;28;20537;-71
2021/11/18 05:15:23;;;;;;;8.15;5.53;;;;;;;;;;5093316;28;20437;-71
2021/11/18 05:17:48;;;;;;;7.63;5.10;;;;;;;;;;5092956;28;20036;-71
2021/11/18 05:20:16;;;;;;;8.52;5.78;;;;;;;;;;5094259;28;20484;-71
2021/11/18 05:22:42;;;;;;;9.43;6.53;;;;;;;;;;5087743;28;20252;-71
2021/11/18 05:25:07;;;;;;;8.18;5.57;;;;;;;;;;5078304;28;20020;-71
2021/11/18 05:27:32;;;;;;;10.43;6.13;;;;;;;;;;5094048;28;20040;-70
2021/11/18 05:29:58;;;;;;;7.07;5.30;;;;;;;;;;5091841;28;20020;-70
2021/11/18 05:32:23;;;;;;;6.70;4.65;;;;;;;;;;5091140;28;20020;-70
2021/11/18 05:34:48;;;;;;;7.15;5.20;;;;;;;;;;5072706;28;20036;-69
2021/11/18 05:37:13;;;;;;;9.15;4.90;;;;;;;;;;5092135;28;20077;-70
2021/11/18 05:39:39;;;;;;;7.03;5.07;;;;;;;;;;5091914;28;20050;-69
2021/11/18 05:42:04;;;;;;;7.50;5.45;;;;;;;;;;5093118;28;20024;-69
2021/11/18 05:44:29;;;;;;;9.25;5.70;;;;;;;;;;5091611;28;20026;-69
2021/11/18 05:46:55;;;;;;;7.97;5.00;;;;;;;;;;5091103;28;20034;-71
2021/11/18 05:49:20;;;;;;;8.18;5.57;;;;;;;;;;5093561;28;20020;-69
2021/11/18 05:51:48;;;;;;;8.43;5.57;;;;;;;;;;5090460;28;20024;-71
2021/11/18 05:54:13;;;;;;;8.43;5.70;;;;;;;;;;5075533;28;20025;-71
2021/11/18 05:56:38;;;;;;;8.77;5.00;;;;;;;;;;5074793;28;20089;-70
2021/11/18 05:59:04;;;;;;;7.85;5.35;;;;;;;;;;5091621;28;20020;-70
2021/11/18 06:01:29;;;;;;;8.00;5.00;;;;;;;;;;5090898;28;20016;-71
2021/11/18 06:03:55;;;;;;;7.55;5.50;;;;;;;;;;5088273;28;20017;-71
2021/11/18 06:06:20;;;;;;;7.57;5.55;;;;;;;;;;5073859;28;20051;-69
2021/11/18 06:08:46;;;;;;;7.90;5.32;;;;;;;;;;5091698;28;20507;-70
2021/11/18 06:11:11;;;;;;;11.40;5.20;;;;;;;;;;5092324;28;20437;-71
2021/11/18 06:13:37;;;;;;;8.25;4.97;;;;;;;;;;5091999;28;20012;-71
2021/11/18 06:16:03;;;;;;;9.57;6.00;;;;;;;;;;5091647;28;20548;-70
2021/11/18 06:18:28;;;;;;;10.10;5.20;;;;;;;;;;5099644;28;20016;-71
2021/11/18 06:20:53;;;;;;;8.07;5.22;;;;;;;;;;5086924;28;20020;-70
2021/11/18 06:23:18;;;;;;;9.50;5.85;;;;;;;;;;5061917;28;20028;-71
2021/11/18 06:25:44;;;;;;;7.43;5.60;;;;;;;;;;5080443;28;20020;-71
2021/11/18 06:28:10;;;;;;;7.55;5.10;;;;;;;;;;5055237;28;1076024;-71
2021/11/18 06:30:46;;;;;;;9.82;5.47;;;;;;;;;;5082827;28;20036;-71
2021/11/18 06:33:12;;;;;;;7.07;5.32;;;;;;;;;;5092545;28;20016;-70
2021/11/18 06:35:38;;;;;;;9.30;5.03;;;;;;;;;;5090102;28;20096;-70
2021/11/18 06:38:03;;;;;;;6.63;4.97;;;;;;;;;;5090623;28;20040;-70
2021/11/18 06:40:28;;;;;;;7.32;5.22;;;;;;;;;;5093130;28;20016;-71
2021/11/18 06:42:54;;;;;;;9.45;4.90;;;;;;;;;;5090317;28;20118;-70
2021/11/18 06:45:21;;;;;;;9.68;5.10;;;;;;;;;;5074229;28;20028;-70
2021/11/18 06:47:46;;;;;;;7.90;4.82;;;;;;;;;;5076786;28;20016;-70
2021/11/18 06:50:12;;;;;;;9.95;5.35;;;;;;;;;;5093291;28;20023;-71
2021/11/18 06:52:37;;;;;;;7.40;4.20;;;;;;;;;;5082478;28;20465;-70
2021/11/18 06:55:04;;;;;;;8.07;4.20;;;;;;;;;;5090719;28;20020;-70
2021/11/18 06:57:30;;;;;;;6.70;3.80;;;;;;;;;;5085727;28;20016;-70
2021/11/18 06:59:57;;;;;;;7.47;4.65;;;;;;;;;;5090196;28;20421;-70
2021/11/18 07:02:22;;;;;;;6.57;4.20;;;;;;;;;;5070523;28;20040;-70
2021/11/18 07:04:49;;;;;;;9.05;4.78;;;;;;;;;;5073211;28;20016;-71
2021/11/18 07:07:14;;;;;;;8.50;4.82;;;;;;;;;;5082345;28;20086;-70
2021/11/18 07:09:39;;;;;;;9.13;5.40;;;;;;;;;;5090448;28;20016;-69
2021/11/18 07:12:07;;;;;;;8.40;4.68;;;;;;;;;;5074914;28;20024;-70
2021/11/18 07:14:33;;;;;;;9.10;5.22;;;;;;;;;;5073107;28;20175;-70
2021/11/18 07:16:59;;;;;;;8.55;4.93;;;;;;;;;;5082530;28;20471;-70
2021/11/18 07:19:24;;;;;;;8.80;5.20;;;;;;;;;;5071517;28;20020;-70
2021/11/18 07:21:49;;;;;;;10.30;5.00;;;;;;;;;;5078678;28;20453;-71
2021/11/18 07:24:16;;;;;;;8.70;5.07;;;;;;;;;;5079165;28;20085;-70
2021/11/18 07:26:42;;;;;;;11.95;5.45;;;;;;;;;;5075797;28;20477;-70
2021/11/18 07:29:07;;;;;;;7.22;4.68;;;;;;;;;;5090000;28;20169;-71
2021/11/18 07:31:33;;;;;;;9.23;4.68;;;;;;;;;;5082323;28;20186;-71
2021/11/18 07:33:58;;;;;;;7.85;4.03;;;;;;;;;;5079723;28;20028;-71
2021/11/18 07:36:24;;;;;;;8.80;4.40;;;;;;;;;;5073457;28;20126;-71
2021/11/18 07:38:49;;;;;;;6.00;4.22;;;;;;;;;;5086882;28;20042;-71
2021/11/18 07:41:14;;;;;;;6.97;3.97;;;;;;;;;;5075481;28;20012;-71
2021/11/18 07:43:41;;;;;;;6.35;4.13;;;;;;;;;;5082259;28;20082;-72
2021/11/18 07:46:07;;;;;;;9.10;4.50;;;;;;;;;;5077152;28;20020;-70
2021/11/18 07:48:33;;;;;;;7.60;4.82;;;;;;;;;;5073763;28;20082;-70
2021/11/18 07:50:59;;;;;;;12.10;5.30;;;;;;;;;;5069620;28;20465;-70
2021/11/18 07:53:25;;;;;;;9.30;4.43;;;;;;;;;;5071465;28;20085;-70
2021/11/18 07:55:50;;;;;;;11.35;4.95;;;;;;;;;;5075815;28;20028;-71
2021/11/18 07:58:16;;;;;;;11.45;4.78;;;;;;;;;;5075003;28;20028;-70
2021/11/18 08:00:42;;;;;;;8.25;4.30;;;;;;;;;;5078798;28;20016;-71
2021/11/18 08:03:09;;;;;;;7.80;4.13;;;;;;;;;;5076342;28;20017;-71
2021/11/18 08:05:34;;;;;;;6.43;3.75;;;;;;;;;;5077463;28;20044;-71
2021/11/18 08:08:00;;;;;;;10.13;4.70;;;;;;;;;;5078055;28;20020;-71
2021/11/18 08:10:25;;;;;;;8.77;4.32;;;;;;;;;;5083665;28;20021;-71
2021/11/18 08:12:50;;;;;;;4.85;3.60;;;;;;;;;;5076903;28;20019;-71
2021/11/18 08:15:18;;;;;;;6.78;3.97;;;;;;;;;;5069266;28;20025;-71
2021/11/18 08:17:43;;;;;;;8.60;4.15;;;;;;;;;;5076440;28;20045;-71
2021/11/18 08:20:08;;;;;;;7.90;3.60;;;;;;;;;;5076928;28;20043;-71
2021/11/18 08:22:34;;;;;;;8.65;3.88;;;;;;;;;;5071243;28;20104;-71
2021/11/18 08:24:59;;;;;;;8.02;4.00;;;;;;;;;;5073673;28;20051;-71
2021/11/18 08:27:24;;;;;;;8.57;4.13;;;;;;;;;;5079180;28;20508;-71
2021/11/18 08:29:49;;;;;;;9.27;4.10;;;;;;;;;;5076570;28;20035;-71
2021/11/18 08:32:15;;;;;;;9.80;4.10;;;;;;;;;;5071871;28;20177;-71
2021/11/18 08:34:41;;;;;;;8.32;4.40;;;;;;;;;;5076818;28;20440;-70
2021/11/18 08:37:06;;;;;;;7.95;3.85;;;;;;;;;;5078998;28;20285;-71
2021/11/18 08:39:32;;;;;;;6.25;3.97;;;;;;;;;;5110087;28;20025;-71
2021/11/18 08:41:59;;;;;;;10.30;5.35;;;;;;;;;;5079968;28;20028;-70
2021/11/18 08:44:25;;;;;;;8.57;4.55;;;;;;;;;;5076956;28;20029;-71
2021/11/18 08:46:51;;;;;;;7.30;4.15;;;;;;;;;;5072849;28;20027;-70
2021/11/18 08:49:17;;;;;;;7.50;4.43;;;;;;;;;;5075109;28;20527;-70
2021/11/18 08:51:42;;;;;;;6.38;3.95;;;;;;;;;;5074202;28;20032;-71
2021/11/18 08:54:11;;;;;;;9.02;4.43;;;;;;;;;;5070773;28;20021;-71
2021/11/18 08:56:36;;;;;;;12.45;4.45;;;;;;;;;;5076379;28;20495;-70
2021/11/18 08:59:03;;;;;;;14.82;4.68;;;;;;;;;;5076362;28;20056;-70
2021/11/18 09:01:35;;;;;;;7.43;3.70;;;;;;;;;;5075877;28;20068;-70
2021/11/18 09:04:01;;;;;;;7.15;3.95;;;;;;;;;;5073180;28;20457;-71
2021/11/18 09:06:27;;;;;;;9.32;4.57;;;;;;;;;;5075678;28;20025;-71
2021/11/18 09:08:53;;;;;;;8.40;4.63;;;;;;;;;;5076301;28;20051;-70
2021/11/18 09:11:19;;;;;;;6.63;4.18;;;;;;;;;;5078014;28;20020;-71
2021/11/18 09:13:45;;;;;;;8.65;4.32;;;;;;;;;;5077317;28;20081;-71
2021/11/18 09:16:10;;;;;;;6.47;3.97;;;;;;;;;;5080143;28;20442;-70
2021/11/18 09:18:40;;;;;;;9.88;4.10;;;;;;;;;;5072137;28;20035;-71
2021/11/18 09:21:05;;;;;;;6.47;3.47;;;;;;;;;;5077730;28;20488;-70
2021/11/18 09:23:32;;;;;;;9.35;4.25;;;;;;;;;;5077094;28;20051;-70
2021/11/18 09:25:57;;;;;;;10.73;4.43;;;;;;;;;;5084283;28;20031;-71
2021/11/18 09:28:24;;;;;;;10.05;3.95;;;;;;;;;;5076962;28;20055;-71
2021/11/18 09:30:53;;;;;;;5.65;2.95;;;;;;;;;;5084302;28;20106;-72
2021/11/18 09:33:18;;;;;;;8.10;4.05;;;;;;;;;;5083558;28;20106;-71
2021/11/18 09:35:45;;;;;;;9.25;3.88;;;;;;;;;;5079693;28;20110;-71
2021/11/18 09:38:11;;;;;;;8.35;3.22;;;;;;;;;;5079868;28;20115;-70
2021/11/18 09:40:49;;;;;;;7.35;3.70;;;;;;;;;;5081230;28;20016;-71
2021/11/18 09:43:33;;;;;;;8.25;3.85;;;;;;;;;;5078633;28;20027;-71
2021/11/18 09:46:01;;;;;;;10.77;3.95;;;;;;;;;;5077711;28;20465;-70
2021/11/18 09:48:33;;;;;;;9.07;3.50;;;;;;;;;;5076633;28;20036;-70
2021/11/18 09:51:12;;;;;;;7.35;3.63;;;;;;;;;;5077835;28;20353;-70
2021/11/18 09:53:51;;;;;;;6.00;3.70;;;;;;;;;;5074416;28;20024;-70
2021/11/18 09:56:16;;;;;;;6.20;3.30;;;;;;;;;;5082086;28;20508;-71
2021/11/18 09:58:52;;;;;;;9.25;4.75;;;;;;;;;;5079095;28;20031;-70
2021/11/18 10:01:30;;;;;;;7.82;4.10;;;;;;;;;;5080496;28;20555;-71
2021/11/18 10:04:14;;;;;;;8.15;3.85;;;;;;;;;;5089765;28;20023;-71
2021/11/18 10:06:40;;;;;;;6.47;3.83;;;;;;;;;;5078625;28;20028;-70
2021/11/18 10:09:24;;;;;;;10.20;4.65;;;;;;;;;;5077707;28;20110;-71
2021/11/18 10:11:52;;;;;;;7.82;3.88;;;;;;;;;;5086145;28;20093;-71
2021/11/18 10:14:17;;;;;;;8.02;4.00;;;;;;;;;;5085054;28;20094;-71
2021/11/18 10:16:53;;;;;;;5.07;2.55;;;;;;;;;;5077915;28;20038;-72
2021/11/18 10:19:22;;;;;;;9.70;4.13;;;;;;;;;;5082515;28;20020;-71
2021/11/18 10:21:47;;;;;;;6.70;3.70;;;;;;;;;;5085483;28;20011;-71
2021/11/18 10:24:15;;;;;;;4.85;3.22;;;;;;;;;;5078923;28;20020;-72
2021/11/18 10:26:47;;;;;;;9.60;5.07;;;;;;;;;;5082016;28;20032;-71
2021/11/18 10:29:15;;;;;;;8.80;4.22;;;;;;;;;;5078913;28;20024;-72
2021/11/18 10:31:50;;;;;;;8.30;4.47;;;;;;;;;;5074114;28;20024;-71
2021/11/18 10:34:29;;;;;;;11.90;5.18;;;;;;;;;;5084619;28;20069;-71
2021/11/18 10:36:57;;;;;;;8.30;4.10;;;;;;;;;;5084755;28;20023;-72
2021/11/18 10:39:31;;;;;;;9.48;4.50;;;;;;;;;;5078336;28;21510;-72
2021/11/18 10:41:58;;;;;;;7.50;4.40;;;;;;;;;;5075727;28;20074;-71
2021/11/18 10:44:42;;;;;;;10.52;4.68;;;;;;;;;;5095977;28;20028;-71
2021/11/18 10:47:12;;;;;;;8.35;4.72;;;;;;;;;;5074410;28;20027;-71
2021/11/18 10:49:45;;;;;;;11.27;5.05;;;;;;;;;;5078023;28;20044;-71
2021/11/18 10:52:20;;;;;;;7.38;4.32;;;;;;;;;;5070096;28;20058;-71
2021/11/18 10:54:47;;;;;;;8.07;4.72;;;;;;;;;;5077563;28;20103;-72
2021/11/18 10:57:22;;;;;;;7.47;4.10;;;;;;;;;;5079423;28;20028;-71
2021/11/18 10:59:47;;;;;;;;;;;;;;;;;;5094661;28;20024;-71
2021/11/18 11:02:19;;;;;;;8.40;4.97;;;;;;;;;;5093127;28;19918;-71
2021/11/18 11:04:46;;;;;;;9.15;4.57;;;;;;;;;;5079218;28;20021;-71
2021/11/18 11:07:11;;;;;;;6.10;3.35;;;;;;;;;;5081268;28;20020;-72
2021/11/18 11:09:38;;;;;;;8.60;4.82;;;;;;;;;;5074336;28;20856;-73
2021/11/18 11:12:11;;;;;;;8.73;4.95;;;;;;;;;;5077496;28;20016;-73
2021/11/18 11:14:54;;;;;;;8.38;4.50;;;;;;;;;;5075713;28;20025;-73
2021/11/18 11:17:26;;;;;;;12.25;5.18;;;;;;;;;;5075682;28;20542;-74
2021/11/18 11:20:01;;;;;;;8.45;4.40;;;;;;;;;;5078620;28;20020;-74
2021/11/18 11:22:29;;;;;;;9.40;4.38;;;;;;;;;;5079332;28;20016;-72
2021/11/18 11:25:12;;;;;;;11.00;5.18;;;;;;;;;;5084583;28;20093;-74
2021/11/18 11:27:45;;;;;;;10.38;4.95;;;;;;;;;;5070167;28;20072;-73
2021/11/18 11:30:46;;;;;;;8.05;4.97;;;;;;;;;;5077727;28;20472;-74
2021/11/18 11:33:29;;;;;;;10.43;5.53;;;;;;;;;;5042579;28;20598;-73
2021/11/18 11:35:54;;;;;;;10.38;5.57;;;;;;;;;;5046384;28;20040;-73
2021/11/18 11:38:25;;;;;;;10.60;4.65;;;;;;;;;;5047928;28;20396;-74
2021/11/18 11:41:06;;;;;;;9.35;5.13;;;;;;;;;;5031822;28;20028;-74
2021/11/18 11:43:31;;;;;;;7.50;5.22;;;;;;;;;;5048182;28;20557;-73
2021/11/18 11:45:59;;;;;;;10.18;6.43;;;;;;;;;;5020233;28;20111;-73
2021/11/18 11:48:34;;;;;;;10.00;5.47;;;;;;;;;;5047624;28;20083;-73
2021/11/18 11:51:19;;;;;;;9.13;5.30;;;;;;;;;;5048622;28;20033;-73
2021/11/18 11:53:53;;;;;;;9.60;5.05;;;;;;;;;;5038093;28;20033;-73
2021/11/18 11:56:27;;;;;;;8.13;4.72;;;;;;;;;;5039483;28;20059;-73
2021/11/18 11:59:22;;;;;;;11.13;5.03;;;;;;;;;;5043514;28;20013;-73
2021/11/18 12:01:58;;;;;;;8.90;4.85;;;;;;;;;;5034344;28;20114;-74
2021/11/18 12:04:44;;;;;;;8.57;4.63;;;;;;;;;;5037986;28;20496;-73
2021/11/18 12:07:25;;;;;;;8.93;4.65;;;;;;;;;;5052651;28;20101;-73
2021/11/18 12:10:09;;;;;;;8.27;4.10;;;;;;;;;;5072556;28;20079;-73
2021/11/18 12:12:34;;;;;;;8.73;5.47;;;;;;;;;;5079951;28;20035;-74
2021/11/18 12:15:02;;;;;;;7.93;4.75;;;;;;;;;;5086186;28;20020;-74
2021/11/18 12:17:33;;;;;;;8.95;5.30;;;;;;;;;;5086341;28;20119;-74
2021/11/18 12:20:04;;;;;;;8.18;4.65;;;;;;;;;;5089587;28;20060;-74
2021/11/18 12:22:49;;;;;;;7.20;4.70;;;;;;;;;;5081844;28;20102;-73
2021/11/18 12:25:15;;;;;;;8.43;4.88;;;;;;;;;;5078038;28;20031;-73
2021/11/18 12:27:56;;;;;;;10.30;5.25;;;;;;;;;;5081172;28;20049;-73
2021/11/18 12:30:31;;;;;;;8.60;4.70;;;;;;;;;;5074908;28;20024;-73
2021/11/18 12:33:03;;;;;;;11.95;5.38;;;;;;;;;;5087039;28;20056;-73
2021/11/18 12:35:28;;;;;;;9.30;4.97;;;;;;;;;;5085471;28;20036;-73
2021/11/18 12:38:02;;;;;;;10.80;4.72;;;;;;;;;;5073927;28;20035;-73
2021/11/18 12:40:46;;;;;;;10.50;4.57;;;;;;;;;;5068521;28;20515;-73
2021/11/18 12:43:19;;;;;;;8.10;4.30;;;;;;;;;;5082593;28;20070;-73
2021/11/18 12:45:44;;;;;;;7.85;4.68;;;;;;;;;;5076527;28;20048;-74
2021/11/18 12:48:09;;;;;;;8.75;4.55;;;;;;;;;;5091412;28;20055;-74
2021/11/18 12:50:49;;;;;;;10.10;5.00;;;;;;;;;;5080546;28;20016;-72
2021/11/18 12:53:19;;;;;;;8.65;4.63;;;;;;;;;;5075909;28;20028;-72
2021/11/18 12:56:08;;;;;;;7.38;4.22;;;;;;;;;;5091177;28;20083;-73
2021/11/18 12:58:39;;;;;;;8.48;4.78;;;;;;;;;;5081935;28;20130;-72
2021/11/18 13:01:19;;;;;;;8.23;4.22;;;;;;;;;;5085302;28;20039;-72
2021/11/18 13:03:50;;;;;;;11.02;5.05;;;;;;;;;;5076791;28;20027;-71
2021/11/18 13:06:34;;;;;;;7.57;4.68;;;;;;;;;;5085952;28;20020;-72
2021/11/18 13:09:06;;;;;;;6.20;4.10;;;;;;;;;;5082078;28;20115;-72
2021/11/18 13:11:34;;;;;;;8.85;4.55;;;;;;;;;;5080019;28;20073;-72
2021/11/18 13:14:12;;;;;;;9.13;4.40;;;;;;;;;;5078557;28;20028;-72
2021/11/18 13:16:47;;;;;;;6.55;3.67;;;;;;;;;;5077065;28;20570;-72
2021/11/18 13:19:23;;;;;;;5.78;3.97;;;;;;;;;;5079569;28;20017;-72
2021/11/18 13:22:08;;;;;;;6.65;4.45;;;;;;;;;;5079831;28;20024;-72
2021/11/18 13:24:34;;;;;;;7.15;4.20;;;;;;;;;;5062450;28;20032;-72
2021/11/18 13:26:59;;;;;;;6.80;4.60;;;;;;;;;;5081545;28;20071;-72
2021/11/18 13:29:26;;;;;;;9.18;4.00;;;;;;;;;;5080143;28;20062;-72
2021/11/18 13:32:06;;;;;;;7.30;3.70;;;;;;;;;;5092730;28;20021;-72
2021/11/18 13:34:33;;;;;;;7.53;4.40;;;;;;;;;;5073069;28;20031;-72
2021/11/18 13:37:07;;;;;;;8.05;4.07;;;;;;;;;;5085709;28;20373;-72
2021/11/18 13:39:40;;;;;;;9.52;4.28;;;;;;;;;;5082013;28;20457;-72
2021/11/18 13:42:20;;;;;;;8.60;4.40;;;;;;;;;;5084698;28;20458;-72
2021/11/18 13:44:50;;;;;;;6.60;4.78;;;;;;;;;;5077663;28;20540;-72
2021/11/18 13:47:29;;;;;;;10.93;5.10;;;;;;;;;;5084498;28;20107;-73
2021/11/18 13:49:58;;;;;;;7.45;4.60;;;;;;;;;;5079997;28;20032;-73
2021/11/18 13:52:26;;;;;;;5.65;4.13;;;;;;;;;;5078976;28;20039;-72
2021/11/18 13:54:54;;;;;;;6.80;4.22;;;;;;;;;;5083294;28;20022;-73
2021/11/18 13:57:31;;;;;;;6.22;4.22;;;;;;;;;;5080336;28;20036;-72
2021/11/18 14:00:00;;;;;;;6.82;3.85;;;;;;;;;;5078500;28;20052;-73
2021/11/18 14:02:25;;;;;;;7.93;4.18;;;;;;;;;;5085666;28;20047;-72
2021/11/18 14:04:51;;;;;;;5.65;3.88;;;;;;;;;;5086302;28;20411;-72
2021/11/18 14:07:17;;;;;;;5.25;4.28;;;;;;;;;;5080148;28;20032;-71
2021/11/18 14:09:44;;;;;;;9.15;4.25;;;;;;;;;;5089810;28;20020;-72
2021/11/18 14:12:30;;;;;;;7.32;4.95;;;;;;;;;;5077720;28;20024;-72
2021/11/18 14:15:13;;;;;;;7.93;4.72;;;;;;;;;;5071777;28;20047;-72
2021/11/18 14:17:48;;;;;;;9.50;4.80;;;;;;;;;;5080988;28;20024;-72
2021/11/18 14:20:13;;;;;;;8.32;5.32;;;;;;;;;;5103857;28;20358;-72
2021/11/18 14:22:38;;;;;;;10.18;5.15;;;;;;;;;;5071380;28;20016;-72
2021/11/18 14:25:22;;;;;;;11.85;5.22;;;;;;;;;;5082444;28;20368;-72
2021/11/18 14:27:56;;;;;;;8.10;4.80;;;;;;;;;;5079104;28;20044;-71
2021/11/18 14:30:36;;;;;;;8.93;4.90;;;;;;;;;;5079777;28;20024;-72
2021/11/18 14:33:11;;;;;;;10.25;5.18;;;;;;;;;;5078973;28;20086;-72
2021/11/18 14:35:38;;;;;;;7.43;5.18;;;;;;;;;;5084670;28;20028;-72
2021/11/18 14:38:19;;;;;;;8.88;5.57;;;;;;;;;;5084987;28;20035;-71
2021/11/18 14:40:53;;;;;;;11.00;5.30;;;;;;;;;;5083278;28;20085;-71
2021/11/18 14:43:22;;;;;;;12.10;6.38;;;;;;;;;;5086287;28;20376;-72
2021/11/18 14:46:07;;;;;;;9.98;6.35;;;;;;;;;;5072131;28;20028;-72
2021/11/18 14:48:59;;;;;;;8.07;5.85;;;;;;;;;;5078245;28;20329;-72